sensor_id;sensor_type;location;lat;lon;timestamp;P1;durP1;ratioP1;P2;durP2;ratioP2
11034;SDS011;5571;48.110;-1.706;2023-11-19T00:00:27;9.63;;;2.50;;
11034;SDS011;5571;48.110;-1.706;2023-11-19T00:02:54;13.93;;;3.13;;
11034;SDS011;5571;48.110;-1.706;2023-11-19T00:05:20;6.53;;;2.57;;
11034;SDS011;5571;48.110;-1.706;2023-11-19T00:07:46;11.03;;;2.53;;
11034;SDS011;5571;48.110;-1.706;2023-11-19T00:10:13;9.50;;;2.70;;
11034;SDS011;5571;48.110;-1.706;2023-11-19T00:12:41;10.50;;;2.70;;
11034;SDS011;5571;48.110;-1.706;2023-11-19T00:15:08;12.57;;;2.90;;
11034;SDS011;5571;48.110;-1.706;2023-11-19T00:17:43;10.53;;;2.57;;
11034;SDS011;5571;48.110;-1.706;2023-11-19T00:20:10;14.23;;;3.23;;
11034;SDS011;5571;48.110;-1.706;2023-11-19T00:22:37;12.00;;;2.87;;
11034;SDS011;5571;48.110;-1.706;2023-11-19T00:25:02;9.37;;;2.80;;
11034;SDS011;5571;48.110;-1.706;2023-11-19T00:27:28;11.10;;;3.10;;
11034;SDS011;5571;48.110;-1.706;2023-11-19T00:29:54;14.90;;;2.83;;
11034;SDS011;5571;48.110;-1.706;2023-11-19T00:32:21;10.87;;;3.00;;
11034;SDS011;5571;48.110;-1.706;2023-11-19T00:34:47;11.10;;;2.80;;
11034;SDS011;5571;48.110;-1.706;2023-11-19T00:37:13;13.70;;;3.37;;
11034;SDS011;5571;48.110;-1.706;2023-11-19T00:39:41;13.70;;;3.20;;
11034;SDS011;5571;48.110;-1.706;2023-11-19T00:42:08;21.57;;;3.70;;
11034;SDS011;5571;48.110;-1.706;2023-11-19T00:44:35;18.37;;;3.73;;
11034;SDS011;5571;48.110;-1.706;2023-11-19T00:47:01;18.57;;;3.33;;
11034;SDS011;5571;48.110;-1.706;2023-11-19T00:49:26;19.20;;;3.47;;
11034;SDS011;5571;48.110;-1.706;2023-11-19T00:51:52;15.67;;;3.53;;
11034;SDS011;5571;48.110;-1.706;2023-11-19T00:54:18;19.53;;;3.70;;
11034;SDS011;5571;48.110;-1.706;2023-11-19T00:56:43;15.40;;;3.77;;
11034;SDS011;5571;48.110;-1.706;2023-11-19T00:59:09;20.60;;;4.00;;
11034;SDS011;5571;48.110;-1.706;2023-11-19T01:01:35;17.53;;;4.03;;
11034;SDS011;5571;48.110;-1.706;2023-11-19T01:04:01;18.77;;;4.13;;
11034;SDS011;5571;48.110;-1.706;2023-11-19T01:06:27;18.27;;;3.50;;
11034;SDS011;5571;48.110;-1.706;2023-11-19T01:08:56;20.00;;;4.23;;
11034;SDS011;5571;48.110;-1.706;2023-11-19T01:11:22;20.13;;;4.20;;
11034;SDS011;5571;48.110;-1.706;2023-11-19T01:13:48;21.00;;;3.83;;
11034;SDS011;5571;48.110;-1.706;2023-11-19T01:16:15;17.30;;;3.83;;
11034;SDS011;5571;48.110;-1.706;2023-11-19T01:18:40;23.37;;;4.20;;
11034;SDS011;5571;48.110;-1.706;2023-11-19T01:21:06;19.60;;;3.67;;
11034;SDS011;5571;48.110;-1.706;2023-11-19T01:23:32;17.47;;;3.60;;
11034;SDS011;5571;48.110;-1.706;2023-11-19T01:25:58;18.57;;;3.90;;
11034;SDS011;5571;48.110;-1.706;2023-11-19T01:28:23;15.40;;;3.60;;
11034;SDS011;5571;48.110;-1.706;2023-11-19T01:30:52;20.57;;;4.17;;
11034;SDS011;5571;48.110;-1.706;2023-11-19T01:33:18;18.07;;;4.07;;
11034;SDS011;5571;48.110;-1.706;2023-11-19T01:35:44;23.43;;;4.73;;
11034;SDS011;5571;48.110;-1.706;2023-11-19T01:38:10;28.57;;;5.17;;
11034;SDS011;5571;48.110;-1.706;2023-11-19T01:40:36;18.87;;;3.80;;
11034;SDS011;5571;48.110;-1.706;2023-11-19T01:43:02;31.90;;;4.63;;
11034;SDS011;5571;48.110;-1.706;2023-11-19T01:45:29;23.63;;;4.87;;
11034;SDS011;5571;48.110;-1.706;2023-11-19T01:47:58;23.60;;;5.00;;
11034;SDS011;5571;48.110;-1.706;2023-11-19T01:50:29;25.60;;;4.87;;
11034;SDS011;5571;48.110;-1.706;2023-11-19T01:52:56;18.33;;;4.83;;
11034;SDS011;5571;48.110;-1.706;2023-11-19T01:55:22;21.10;;;3.93;;
11034;SDS011;5571;48.110;-1.706;2023-11-19T01:57:49;26.83;;;4.57;;
11034;SDS011;5571;48.110;-1.706;2023-11-19T02:00:16;25.10;;;4.30;;
11034;SDS011;5571;48.110;-1.706;2023-11-19T02:02:44;26.43;;;5.27;;
11034;SDS011;5571;48.110;-1.706;2023-11-19T02:05:11;24.50;;;5.27;;
11034;SDS011;5571;48.110;-1.706;2023-11-19T02:07:38;24.33;;;4.80;;
11034;SDS011;5571;48.110;-1.706;2023-11-19T02:10:04;22.97;;;5.20;;
11034;SDS011;5571;48.110;-1.706;2023-11-19T02:12:30;29.53;;;5.50;;
11034;SDS011;5571;48.110;-1.706;2023-11-19T02:15:00;23.47;;;5.13;;
11034;SDS011;5571;48.110;-1.706;2023-11-19T02:17:28;26.50;;;4.50;;
11034;SDS011;5571;48.110;-1.706;2023-11-19T02:19:56;23.90;;;4.70;;
11034;SDS011;5571;48.110;-1.706;2023-11-19T02:22:23;30.87;;;4.87;;
11034;SDS011;5571;48.110;-1.706;2023-11-19T02:24:49;18.10;;;4.57;;
11034;SDS011;5571;48.110;-1.706;2023-11-19T02:27:26;32.87;;;5.60;;
11034;SDS011;5571;48.110;-1.706;2023-11-19T02:29:54;21.10;;;4.33;;
11034;SDS011;5571;48.110;-1.706;2023-11-19T02:32:19;28.50;;;5.10;;
11034;SDS011;5571;48.110;-1.706;2023-11-19T02:34:45;27.00;;;4.60;;
11034;SDS011;5571;48.110;-1.706;2023-11-19T02:37:11;30.50;;;6.13;;
11034;SDS011;5571;48.110;-1.706;2023-11-19T02:39:37;24.67;;;5.87;;
11034;SDS011;5571;48.110;-1.706;2023-11-19T02:42:02;29.67;;;5.67;;
11034;SDS011;5571;48.110;-1.706;2023-11-19T02:44:28;22.73;;;4.83;;
11034;SDS011;5571;48.110;-1.706;2023-11-19T02:46:55;23.93;;;5.03;;
11034;SDS011;5571;48.110;-1.706;2023-11-19T02:49:24;25.63;;;5.10;;
11034;SDS011;5571;48.110;-1.706;2023-11-19T02:51:50;34.00;;;5.77;;
11034;SDS011;5571;48.110;-1.706;2023-11-19T02:54:15;26.37;;;5.37;;
11034;SDS011;5571;48.110;-1.706;2023-11-19T02:56:44;24.03;;;5.17;;
11034;SDS011;5571;48.110;-1.706;2023-11-19T02:59:12;35.87;;;5.70;;
11034;SDS011;5571;48.110;-1.706;2023-11-19T03:01:52;30.17;;;5.20;;
11034;SDS011;5571;48.110;-1.706;2023-11-19T03:04:18;29.07;;;5.50;;
11034;SDS011;5571;48.110;-1.706;2023-11-19T03:06:45;31.83;;;6.00;;
11034;SDS011;5571;48.110;-1.706;2023-11-19T03:09:11;30.93;;;5.87;;
11034;SDS011;5571;48.110;-1.706;2023-11-19T03:11:36;38.50;;;6.23;;
11034;SDS011;5571;48.110;-1.706;2023-11-19T03:14:02;31.63;;;6.07;;
11034;SDS011;5571;48.110;-1.706;2023-11-19T03:16:28;29.77;;;5.17;;
11034;SDS011;5571;48.110;-1.706;2023-11-19T03:18:54;33.37;;;6.13;;
11034;SDS011;5571;48.110;-1.706;2023-11-19T03:21:26;37.87;;;5.90;;
11034;SDS011;5571;48.110;-1.706;2023-11-19T03:23:56;28.73;;;5.47;;
11034;SDS011;5571;48.110;-1.706;2023-11-19T03:26:25;35.20;;;6.03;;
11034;SDS011;5571;48.110;-1.706;2023-11-19T03:28:52;35.30;;;6.10;;
11034;SDS011;5571;48.110;-1.706;2023-11-19T03:31:17;41.07;;;6.37;;
11034;SDS011;5571;48.110;-1.706;2023-11-19T03:33:43;36.63;;;6.70;;
11034;SDS011;5571;48.110;-1.706;2023-11-19T03:36:10;28.57;;;5.73;;
11034;SDS011;5571;48.110;-1.706;2023-11-19T03:38:35;34.40;;;5.40;;
11034;SDS011;5571;48.110;-1.706;2023-11-19T03:41:01;32.70;;;5.83;;
11034;SDS011;5571;48.110;-1.706;2023-11-19T03:43:38;44.43;;;6.27;;
11034;SDS011;5571;48.110;-1.706;2023-11-19T03:46:05;36.37;;;5.70;;
11034;SDS011;5571;48.110;-1.706;2023-11-19T03:48:40;32.77;;;7.03;;
11034;SDS011;5571;48.110;-1.706;2023-11-19T03:51:06;36.80;;;6.87;;
11034;SDS011;5571;48.110;-1.706;2023-11-19T03:53:31;36.30;;;6.23;;
11034;SDS011;5571;48.110;-1.706;2023-11-19T03:55:57;33.57;;;6.23;;
11034;SDS011;5571;48.110;-1.706;2023-11-19T03:58:23;38.17;;;6.43;;
11034;SDS011;5571;48.110;-1.706;2023-11-19T04:00:49;32.80;;;6.27;;
11034;SDS011;5571;48.110;-1.706;2023-11-19T04:03:14;33.93;;;6.23;;
11034;SDS011;5571;48.110;-1.706;2023-11-19T04:05:40;37.20;;;6.33;;
11034;SDS011;5571;48.110;-1.706;2023-11-19T04:08:06;38.67;;;6.00;;
11034;SDS011;5571;48.110;-1.706;2023-11-19T04:10:32;37.80;;;6.43;;
11034;SDS011;5571;48.110;-1.706;2023-11-19T04:12:57;52.93;;;6.83;;
11034;SDS011;5571;48.110;-1.706;2023-11-19T04:15:23;43.17;;;6.73;;
11034;SDS011;5571;48.110;-1.706;2023-11-19T04:17:49;34.03;;;6.00;;
11034;SDS011;5571;48.110;-1.706;2023-11-19T04:20:14;39.97;;;6.60;;
11034;SDS011;5571;48.110;-1.706;2023-11-19T04:22:40;36.87;;;6.53;;
11034;SDS011;5571;48.110;-1.706;2023-11-19T04:25:06;38.20;;;6.50;;
11034;SDS011;5571;48.110;-1.706;2023-11-19T04:27:32;30.40;;;6.27;;
11034;SDS011;5571;48.110;-1.706;2023-11-19T04:29:57;39.20;;;7.47;;
11034;SDS011;5571;48.110;-1.706;2023-11-19T04:32:23;43.20;;;6.80;;
11034;SDS011;5571;48.110;-1.706;2023-11-19T04:34:50;31.53;;;5.83;;
11034;SDS011;5571;48.110;-1.706;2023-11-19T04:37:16;41.47;;;6.27;;
11034;SDS011;5571;48.110;-1.706;2023-11-19T04:39:43;40.00;;;6.50;;
11034;SDS011;5571;48.110;-1.706;2023-11-19T04:42:10;37.03;;;6.77;;
11034;SDS011;5571;48.110;-1.706;2023-11-19T04:44:35;36.77;;;6.50;;
11034;SDS011;5571;48.110;-1.706;2023-11-19T04:47:01;32.27;;;6.43;;
11034;SDS011;5571;48.110;-1.706;2023-11-19T04:49:26;37.00;;;6.90;;
11034;SDS011;5571;48.110;-1.706;2023-11-19T04:51:52;40.90;;;6.90;;
11034;SDS011;5571;48.110;-1.706;2023-11-19T04:54:18;45.50;;;7.07;;
11034;SDS011;5571;48.110;-1.706;2023-11-19T04:56:47;38.23;;;7.17;;
11034;SDS011;5571;48.110;-1.706;2023-11-19T04:59:13;46.17;;;6.60;;
11034;SDS011;5571;48.110;-1.706;2023-11-19T05:01:39;43.20;;;6.47;;
11034;SDS011;5571;48.110;-1.706;2023-11-19T05:04:04;44.40;;;6.60;;
11034;SDS011;5571;48.110;-1.706;2023-11-19T05:06:30;35.23;;;6.63;;
11034;SDS011;5571;48.110;-1.706;2023-11-19T05:08:57;32.13;;;6.53;;
11034;SDS011;5571;48.110;-1.706;2023-11-19T05:11:26;51.77;;;6.93;;
11034;SDS011;5571;48.110;-1.706;2023-11-19T05:13:53;34.47;;;6.97;;
11034;SDS011;5571;48.110;-1.706;2023-11-19T05:16:19;40.23;;;6.77;;
11034;SDS011;5571;48.110;-1.706;2023-11-19T05:18:45;34.90;;;6.40;;
11034;SDS011;5571;48.110;-1.706;2023-11-19T05:21:11;42.20;;;7.30;;
11034;SDS011;5571;48.110;-1.706;2023-11-19T05:23:37;34.73;;;6.60;;
11034;SDS011;5571;48.110;-1.706;2023-11-19T05:26:04;41.33;;;7.27;;
11034;SDS011;5571;48.110;-1.706;2023-11-19T05:28:30;39.07;;;7.07;;
11034;SDS011;5571;48.110;-1.706;2023-11-19T05:30:55;44.77;;;7.90;;
11034;SDS011;5571;48.110;-1.706;2023-11-19T05:33:21;40.60;;;6.73;;
11034;SDS011;5571;48.110;-1.706;2023-11-19T05:35:47;37.77;;;7.10;;
11034;SDS011;5571;48.110;-1.706;2023-11-19T05:38:12;35.30;;;6.47;;
11034;SDS011;5571;48.110;-1.706;2023-11-19T05:40:39;43.10;;;7.33;;
11034;SDS011;5571;48.110;-1.706;2023-11-19T05:43:06;39.73;;;6.87;;
11034;SDS011;5571;48.110;-1.706;2023-11-19T05:45:31;39.20;;;6.90;;
11034;SDS011;5571;48.110;-1.706;2023-11-19T05:47:57;44.27;;;7.10;;
11034;SDS011;5571;48.110;-1.706;2023-11-19T05:50:23;37.50;;;6.47;;
11034;SDS011;5571;48.110;-1.706;2023-11-19T05:52:49;36.67;;;7.10;;
11034;SDS011;5571;48.110;-1.706;2023-11-19T05:55:15;42.97;;;6.67;;
11034;SDS011;5571;48.110;-1.706;2023-11-19T05:57:41;39.93;;;6.67;;
11034;SDS011;5571;48.110;-1.706;2023-11-19T06:00:07;42.53;;;7.00;;
11034;SDS011;5571;48.110;-1.706;2023-11-19T06:02:33;52.57;;;7.97;;
11034;SDS011;5571;48.110;-1.706;2023-11-19T06:04:59;44.97;;;7.07;;
11034;SDS011;5571;48.110;-1.706;2023-11-19T06:07:26;44.37;;;7.17;;
11034;SDS011;5571;48.110;-1.706;2023-11-19T06:09:52;31.63;;;6.87;;
11034;SDS011;5571;48.110;-1.706;2023-11-19T06:12:17;40.90;;;6.73;;
11034;SDS011;5571;48.110;-1.706;2023-11-19T06:14:43;38.17;;;6.83;;
11034;SDS011;5571;48.110;-1.706;2023-11-19T06:17:08;39.00;;;6.97;;
11034;SDS011;5571;48.110;-1.706;2023-11-19T06:19:36;44.77;;;7.13;;
11034;SDS011;5571;48.110;-1.706;2023-11-19T06:22:02;36.63;;;6.43;;
11034;SDS011;5571;48.110;-1.706;2023-11-19T06:24:27;50.03;;;7.60;;
11034;SDS011;5571;48.110;-1.706;2023-11-19T06:26:53;38.90;;;6.53;;
11034;SDS011;5571;48.110;-1.706;2023-11-19T06:29:19;46.60;;;7.23;;
11034;SDS011;5571;48.110;-1.706;2023-11-19T06:31:44;37.57;;;6.53;;
11034;SDS011;5571;48.110;-1.706;2023-11-19T06:34:13;42.13;;;7.40;;
11034;SDS011;5571;48.110;-1.706;2023-11-19T06:36:39;40.20;;;7.37;;
11034;SDS011;5571;48.110;-1.706;2023-11-19T06:39:05;36.63;;;6.30;;
11034;SDS011;5571;48.110;-1.706;2023-11-19T06:41:30;49.70;;;6.93;;
11034;SDS011;5571;48.110;-1.706;2023-11-19T06:43:56;44.50;;;7.10;;
11034;SDS011;5571;48.110;-1.706;2023-11-19T06:46:22;49.67;;;7.40;;
11034;SDS011;5571;48.110;-1.706;2023-11-19T06:48:47;44.13;;;7.23;;
11034;SDS011;5571;48.110;-1.706;2023-11-19T06:51:13;41.43;;;6.60;;
11034;SDS011;5571;48.110;-1.706;2023-11-19T06:53:39;46.10;;;7.70;;
11034;SDS011;5571;48.110;-1.706;2023-11-19T06:56:21;42.03;;;7.27;;
11034;SDS011;5571;48.110;-1.706;2023-11-19T06:58:48;42.90;;;7.03;;
11034;SDS011;5571;48.110;-1.706;2023-11-19T07:01:15;44.77;;;6.83;;
11034;SDS011;5571;48.110;-1.706;2023-11-19T07:03:41;39.93;;;6.10;;
11034;SDS011;5571;48.110;-1.706;2023-11-19T07:06:07;49.70;;;7.07;;
11034;SDS011;5571;48.110;-1.706;2023-11-19T07:08:33;45.90;;;7.27;;
11034;SDS011;5571;48.110;-1.706;2023-11-19T07:10:59;40.47;;;6.47;;
11034;SDS011;5571;48.110;-1.706;2023-11-19T07:13:24;39.07;;;7.23;;
11034;SDS011;5571;48.110;-1.706;2023-11-19T07:15:52;43.23;;;7.17;;
11034;SDS011;5571;48.110;-1.706;2023-11-19T07:18:18;38.27;;;7.07;;
11034;SDS011;5571;48.110;-1.706;2023-11-19T07:20:47;39.93;;;7.10;;
11034;SDS011;5571;48.110;-1.706;2023-11-19T07:23:13;45.93;;;6.37;;
11034;SDS011;5571;48.110;-1.706;2023-11-19T07:25:41;41.90;;;6.13;;
11034;SDS011;5571;48.110;-1.706;2023-11-19T07:28:08;39.70;;;5.93;;
11034;SDS011;5571;48.110;-1.706;2023-11-19T07:30:34;38.87;;;5.90;;
11034;SDS011;5571;48.110;-1.706;2023-11-19T07:33:00;46.57;;;6.73;;
11034;SDS011;5571;48.110;-1.706;2023-11-19T07:35:28;48.23;;;7.63;;
11034;SDS011;5571;48.110;-1.706;2023-11-19T07:37:55;42.77;;;7.50;;
11034;SDS011;5571;48.110;-1.706;2023-11-19T07:40:22;54.50;;;7.47;;
11034;SDS011;5571;48.110;-1.706;2023-11-19T07:42:48;46.73;;;7.20;;
11034;SDS011;5571;48.110;-1.706;2023-11-19T07:45:14;38.10;;;6.73;;
11034;SDS011;5571;48.110;-1.706;2023-11-19T07:47:39;45.33;;;7.23;;
11034;SDS011;5571;48.110;-1.706;2023-11-19T07:50:05;47.23;;;7.63;;
11034;SDS011;5571;48.110;-1.706;2023-11-19T07:52:31;41.10;;;7.23;;
11034;SDS011;5571;48.110;-1.706;2023-11-19T07:54:56;42.50;;;7.33;;
11034;SDS011;5571;48.110;-1.706;2023-11-19T07:57:22;44.63;;;6.77;;
11034;SDS011;5571;48.110;-1.706;2023-11-19T07:59:49;44.03;;;6.67;;
11034;SDS011;5571;48.110;-1.706;2023-11-19T08:02:14;39.33;;;6.60;;
11034;SDS011;5571;48.110;-1.706;2023-11-19T08:04:40;46.07;;;8.07;;
11034;SDS011;5571;48.110;-1.706;2023-11-19T08:07:11;46.20;;;8.03;;
11034;SDS011;5571;48.110;-1.706;2023-11-19T08:09:36;41.07;;;7.10;;
11034;SDS011;5571;48.110;-1.706;2023-11-19T08:12:04;37.97;;;6.80;;
11034;SDS011;5571;48.110;-1.706;2023-11-19T08:14:30;47.20;;;7.90;;
11034;SDS011;5571;48.110;-1.706;2023-11-19T08:16:55;40.77;;;6.80;;
11034;SDS011;5571;48.110;-1.706;2023-11-19T08:19:22;45.27;;;7.70;;
11034;SDS011;5571;48.110;-1.706;2023-11-19T08:21:47;40.13;;;6.67;;
11034;SDS011;5571;48.110;-1.706;2023-11-19T08:24:13;52.03;;;8.10;;
11034;SDS011;5571;48.110;-1.706;2023-11-19T08:26:38;42.40;;;7.50;;
11034;SDS011;5571;48.110;-1.706;2023-11-19T08:29:05;48.47;;;7.63;;
11034;SDS011;5571;48.110;-1.706;2023-11-19T08:31:30;41.90;;;7.73;;
11034;SDS011;5571;48.110;-1.706;2023-11-19T08:33:56;44.60;;;7.00;;
11034;SDS011;5571;48.110;-1.706;2023-11-19T08:36:22;35.77;;;6.70;;
11034;SDS011;5571;48.110;-1.706;2023-11-19T08:38:47;42.40;;;6.53;;
11034;SDS011;5571;48.110;-1.706;2023-11-19T08:41:13;42.77;;;7.93;;
11034;SDS011;5571;48.110;-1.706;2023-11-19T08:43:38;40.97;;;7.40;;
11034;SDS011;5571;48.110;-1.706;2023-11-19T08:46:09;42.33;;;6.87;;
11034;SDS011;5571;48.110;-1.706;2023-11-19T08:48:35;45.47;;;7.20;;
11034;SDS011;5571;48.110;-1.706;2023-11-19T08:51:01;37.33;;;6.57;;
11034;SDS011;5571;48.110;-1.706;2023-11-19T08:53:26;40.57;;;6.83;;
11034;SDS011;5571;48.110;-1.706;2023-11-19T08:55:52;41.80;;;7.07;;
11034;SDS011;5571;48.110;-1.706;2023-11-19T08:58:18;45.40;;;6.93;;
11034;SDS011;5571;48.110;-1.706;2023-11-19T09:00:43;46.90;;;7.70;;
11034;SDS011;5571;48.110;-1.706;2023-11-19T09:03:09;38.30;;;6.87;;
11034;SDS011;5571;48.110;-1.706;2023-11-19T09:05:34;44.07;;;7.97;;
11034;SDS011;5571;48.110;-1.706;2023-11-19T09:08:00;42.73;;;7.53;;
11034;SDS011;5571;48.110;-1.706;2023-11-19T09:10:25;32.53;;;6.60;;
11034;SDS011;5571;48.110;-1.706;2023-11-19T09:12:52;50.33;;;7.63;;
11034;SDS011;5571;48.110;-1.706;2023-11-19T09:15:17;42.77;;;7.30;;
11034;SDS011;5571;48.110;-1.706;2023-11-19T09:17:43;47.03;;;7.27;;
11034;SDS011;5571;48.110;-1.706;2023-11-19T09:20:10;32.53;;;6.70;;
11034;SDS011;5571;48.110;-1.706;2023-11-19T09:22:39;42.17;;;7.53;;
11034;SDS011;5571;48.110;-1.706;2023-11-19T09:25:05;46.43;;;6.87;;
11034;SDS011;5571;48.110;-1.706;2023-11-19T09:27:31;37.10;;;7.00;;
11034;SDS011;5571;48.110;-1.706;2023-11-19T09:29:58;41.93;;;6.87;;
11034;SDS011;5571;48.110;-1.706;2023-11-19T09:32:24;32.80;;;6.80;;
11034;SDS011;5571;48.110;-1.706;2023-11-19T09:34:50;35.97;;;6.23;;
11034;SDS011;5571;48.110;-1.706;2023-11-19T09:37:16;36.53;;;6.60;;
11034;SDS011;5571;48.110;-1.706;2023-11-19T09:39:41;42.70;;;7.17;;
11034;SDS011;5571;48.110;-1.706;2023-11-19T09:42:10;42.13;;;7.73;;
11034;SDS011;5571;48.110;-1.706;2023-11-19T09:44:37;37.23;;;7.33;;
11034;SDS011;5571;48.110;-1.706;2023-11-19T09:47:04;41.97;;;6.37;;
11034;SDS011;5571;48.110;-1.706;2023-11-19T09:49:31;39.87;;;6.50;;
11034;SDS011;5571;48.110;-1.706;2023-11-19T09:51:58;32.03;;;7.23;;
11034;SDS011;5571;48.110;-1.706;2023-11-19T09:54:24;33.23;;;6.37;;
11034;SDS011;5571;48.110;-1.706;2023-11-19T09:56:49;41.90;;;6.87;;
11034;SDS011;5571;48.110;-1.706;2023-11-19T09:59:15;38.47;;;7.33;;
11034;SDS011;5571;48.110;-1.706;2023-11-19T10:01:42;39.63;;;6.93;;
11034;SDS011;5571;48.110;-1.706;2023-11-19T10:04:09;37.67;;;7.07;;
11034;SDS011;5571;48.110;-1.706;2023-11-19T10:06:37;39.27;;;6.50;;
11034;SDS011;5571;48.110;-1.706;2023-11-19T10:09:03;43.90;;;7.10;;
11034;SDS011;5571;48.110;-1.706;2023-11-19T10:11:30;35.53;;;6.70;;
11034;SDS011;5571;48.110;-1.706;2023-11-19T10:13:55;36.13;;;6.97;;
11034;SDS011;5571;48.110;-1.706;2023-11-19T10:16:27;32.20;;;5.97;;
11034;SDS011;5571;48.110;-1.706;2023-11-19T10:18:55;35.87;;;7.37;;
11034;SDS011;5571;48.110;-1.706;2023-11-19T10:21:21;37.90;;;7.03;;
11034;SDS011;5571;48.110;-1.706;2023-11-19T10:23:47;40.73;;;6.70;;
11034;SDS011;5571;48.110;-1.706;2023-11-19T10:26:15;31.77;;;5.87;;
11034;SDS011;5571;48.110;-1.706;2023-11-19T10:28:41;37.37;;;6.97;;
11034;SDS011;5571;48.110;-1.706;2023-11-19T10:31:09;30.70;;;5.83;;
11034;SDS011;5571;48.110;-1.706;2023-11-19T10:33:34;39.67;;;6.20;;
11034;SDS011;5571;48.110;-1.706;2023-11-19T10:36:00;36.77;;;6.80;;
11034;SDS011;5571;48.110;-1.706;2023-11-19T10:38:26;38.27;;;6.23;;
11034;SDS011;5571;48.110;-1.706;2023-11-19T10:40:52;37.73;;;6.40;;
11034;SDS011;5571;48.110;-1.706;2023-11-19T10:43:19;40.80;;;7.03;;
11034;SDS011;5571;48.110;-1.706;2023-11-19T10:45:47;28.00;;;5.67;;
11034;SDS011;5571;48.110;-1.706;2023-11-19T10:48:12;34.67;;;7.03;;
11034;SDS011;5571;48.110;-1.706;2023-11-19T10:50:39;31.33;;;6.23;;
11034;SDS011;5571;48.110;-1.706;2023-11-19T10:53:06;39.27;;;7.20;;
11034;SDS011;5571;48.110;-1.706;2023-11-19T10:55:35;28.63;;;5.80;;
11034;SDS011;5571;48.110;-1.706;2023-11-19T10:58:12;34.33;;;6.30;;
11034;SDS011;5571;48.110;-1.706;2023-11-19T11:00:51;40.43;;;7.90;;
11034;SDS011;5571;48.110;-1.706;2023-11-19T11:03:21;33.10;;;6.43;;
11034;SDS011;5571;48.110;-1.706;2023-11-19T11:05:50;27.90;;;5.80;;
11034;SDS011;5571;48.110;-1.706;2023-11-19T11:08:17;36.97;;;6.10;;
11034;SDS011;5571;48.110;-1.706;2023-11-19T11:10:53;29.30;;;7.10;;
11034;SDS011;5571;48.110;-1.706;2023-11-19T11:13:20;29.93;;;6.50;;
11034;SDS011;5571;48.110;-1.706;2023-11-19T11:15:47;25.73;;;5.33;;
11034;SDS011;5571;48.110;-1.706;2023-11-19T11:18:14;31.13;;;6.27;;
11034;SDS011;5571;48.110;-1.706;2023-11-19T11:20:40;34.60;;;6.40;;
11034;SDS011;5571;48.110;-1.706;2023-11-19T11:31:48;35.77;;;6.67;;
11034;SDS011;5571;48.110;-1.706;2023-11-19T11:39:50;29.03;;;5.57;;
11034;SDS011;5571;48.110;-1.706;2023-11-19T11:44:57;30.87;;;6.03;;
11034;SDS011;5571;48.110;-1.706;2023-11-19T11:58:02;26.10;;;5.77;;
11034;SDS011;5571;48.110;-1.706;2023-11-19T12:02:55;23.43;;;5.10;;
11034;SDS011;5571;48.110;-1.706;2023-11-19T12:05:22;29.43;;;5.57;;
11034;SDS011;5571;48.110;-1.706;2023-11-19T12:10:26;28.27;;;5.63;;
11034;SDS011;5571;48.110;-1.706;2023-11-19T12:12:59;27.53;;;5.30;;
11034;SDS011;5571;48.110;-1.706;2023-11-19T12:15:25;28.83;;;5.47;;
11034;SDS011;5571;48.110;-1.706;2023-11-19T12:17:52;23.37;;;4.80;;
11034;SDS011;5571;48.110;-1.706;2023-11-19T12:20:20;18.80;;;4.97;;
11034;SDS011;5571;48.110;-1.706;2023-11-19T12:22:47;25.93;;;5.43;;
11034;SDS011;5571;48.110;-1.706;2023-11-19T12:25:14;21.77;;;4.97;;
11034;SDS011;5571;48.110;-1.706;2023-11-19T12:27:45;21.83;;;5.03;;
11034;SDS011;5571;48.110;-1.706;2023-11-19T12:30:12;17.20;;;4.40;;
11034;SDS011;5571;48.110;-1.706;2023-11-19T12:32:41;25.87;;;4.97;;
11034;SDS011;5571;48.110;-1.706;2023-11-19T12:35:08;23.60;;;4.47;;
11034;SDS011;5571;48.110;-1.706;2023-11-19T12:40:14;20.43;;;5.50;;
11034;SDS011;5571;48.110;-1.706;2023-11-19T12:42:51;20.47;;;5.33;;
11034;SDS011;5571;48.110;-1.706;2023-11-19T12:45:20;24.77;;;4.85;;
11034;SDS011;5571;48.110;-1.706;2023-11-19T12:47:48;25.10;;;5.32;;
11034;SDS011;5571;48.110;-1.706;2023-11-19T12:50:15;20.25;;;4.57;;
11034;SDS011;5571;48.110;-1.706;2023-11-19T12:52:43;20.30;;;4.97;;
11034;SDS011;5571;48.110;-1.706;2023-11-19T12:55:25;23.83;;;5.25;;
11034;SDS011;5571;48.110;-1.706;2023-11-19T12:57:52;21.88;;;5.50;;
11034;SDS011;5571;48.110;-1.706;2023-11-19T13:00:20;20.23;;;4.78;;
11034;SDS011;5571;48.110;-1.706;2023-11-19T13:02:48;25.85;;;5.35;;
11034;SDS011;5571;48.110;-1.706;2023-11-19T13:05:30;18.17;;;4.65;;
11034;SDS011;5571;48.110;-1.706;2023-11-19T13:08:03;27.10;;;4.93;;
11034;SDS011;5571;48.110;-1.706;2023-11-19T13:10:30;17.90;;;4.65;;
11034;SDS011;5571;48.110;-1.706;2023-11-19T13:13:06;23.70;;;5.65;;
11034;SDS011;5571;48.110;-1.706;2023-11-19T13:15:36;20.80;;;5.07;;
11034;SDS011;5571;48.110;-1.706;2023-11-19T13:18:02;24.60;;;4.70;;
11034;SDS011;5571;48.110;-1.706;2023-11-19T13:20:28;26.83;;;5.53;;
11034;SDS011;5571;48.110;-1.706;2023-11-19T13:22:55;18.73;;;4.90;;
11034;SDS011;5571;48.110;-1.706;2023-11-19T13:25:24;22.77;;;5.17;;
11034;SDS011;5571;48.110;-1.706;2023-11-19T13:27:50;30.33;;;5.60;;
11034;SDS011;5571;48.110;-1.706;2023-11-19T13:30:16;21.20;;;4.90;;
11034;SDS011;5571;48.110;-1.706;2023-11-19T13:32:42;22.20;;;5.07;;
11034;SDS011;5571;48.110;-1.706;2023-11-19T13:35:09;23.57;;;5.13;;
11034;SDS011;5571;48.110;-1.706;2023-11-19T13:37:35;23.08;;;5.15;;
11034;SDS011;5571;48.110;-1.706;2023-11-19T13:40:00;28.02;;;5.55;;
11034;SDS011;5571;48.110;-1.706;2023-11-19T13:42:26;17.80;;;4.40;;
11034;SDS011;5571;48.110;-1.706;2023-11-19T13:44:52;24.15;;;5.10;;
11034;SDS011;5571;48.110;-1.706;2023-11-19T13:47:18;21.70;;;5.57;;
11034;SDS011;5571;48.110;-1.706;2023-11-19T13:49:44;21.93;;;5.00;;
11034;SDS011;5571;48.110;-1.706;2023-11-19T13:52:10;29.27;;;4.80;;
11034;SDS011;5571;48.110;-1.706;2023-11-19T13:54:36;25.77;;;4.97;;
11034;SDS011;5571;48.110;-1.706;2023-11-19T13:57:02;24.27;;;5.20;;
11034;SDS011;5571;48.110;-1.706;2023-11-19T13:59:29;24.00;;;4.93;;
11034;SDS011;5571;48.110;-1.706;2023-11-19T14:01:58;26.67;;;4.70;;
11034;SDS011;5571;48.110;-1.706;2023-11-19T14:04:23;23.13;;;4.97;;
11034;SDS011;5571;48.110;-1.706;2023-11-19T14:06:50;29.83;;;5.97;;
11034;SDS011;5571;48.110;-1.706;2023-11-19T14:09:15;24.13;;;4.67;;
11034;SDS011;5571;48.110;-1.706;2023-11-19T14:11:42;21.30;;;4.60;;
11034;SDS011;5571;48.110;-1.706;2023-11-19T14:14:08;31.58;;;5.70;;
11034;SDS011;5571;48.110;-1.706;2023-11-19T14:16:33;27.77;;;4.90;;
11034;SDS011;5571;48.110;-1.706;2023-11-19T14:18:59;29.73;;;5.03;;
11034;SDS011;5571;48.110;-1.706;2023-11-19T14:21:25;24.13;;;5.17;;
11034;SDS011;5571;48.110;-1.706;2023-11-19T14:23:51;21.37;;;5.77;;
11034;SDS011;5571;48.110;-1.706;2023-11-19T14:26:17;24.80;;;5.40;;
11034;SDS011;5571;48.110;-1.706;2023-11-19T14:28:43;24.50;;;5.27;;
11034;SDS011;5571;48.110;-1.706;2023-11-19T14:31:09;25.07;;;4.83;;
11034;SDS011;5571;48.110;-1.706;2023-11-19T14:33:34;26.53;;;5.10;;
11034;SDS011;5571;48.110;-1.706;2023-11-19T14:36:01;22.37;;;5.10;;
11034;SDS011;5571;48.110;-1.706;2023-11-19T14:38:26;24.63;;;5.33;;
11034;SDS011;5571;48.110;-1.706;2023-11-19T14:40:52;24.00;;;5.43;;
11034;SDS011;5571;48.110;-1.706;2023-11-19T14:43:18;21.17;;;4.50;;
11034;SDS011;5571;48.110;-1.706;2023-11-19T14:45:43;28.13;;;5.40;;
11034;SDS011;5571;48.110;-1.706;2023-11-19T14:48:09;32.70;;;5.47;;
11034;SDS011;5571;48.110;-1.706;2023-11-19T14:50:35;23.73;;;5.00;;
11034;SDS011;5571;48.110;-1.706;2023-11-19T14:53:01;24.23;;;5.00;;
11034;SDS011;5571;48.110;-1.706;2023-11-19T14:55:27;25.93;;;5.20;;
11034;SDS011;5571;48.110;-1.706;2023-11-19T14:57:52;19.93;;;4.80;;
11034;SDS011;5571;48.110;-1.706;2023-11-19T15:00:18;22.90;;;4.73;;
11034;SDS011;5571;48.110;-1.706;2023-11-19T15:02:44;30.37;;;5.97;;
11034;SDS011;5571;48.110;-1.706;2023-11-19T15:05:10;26.40;;;5.17;;
11034;SDS011;5571;48.110;-1.706;2023-11-19T15:07:38;24.23;;;5.00;;